sensor_id;sensor_type;location;lat;lon;timestamp;P1;durP1;ratioP1;P2;durP2;ratioP2
24617;SDS011;12762;51.730;5.356;2023-12-04T00:01:27;26.17;;;10.23;;
24617;SDS011;12762;51.730;5.356;2023-12-04T00:03:56;20.87;;;9.07;;
24617;SDS011;12762;51.730;5.356;2023-12-04T00:06:22;24.33;;;10.20;;
24617;SDS011;12762;51.730;5.356;2023-12-04T00:08:50;25.87;;;9.80;;
24617;SDS011;12762;51.730;5.356;2023-12-04T00:11:16;21.33;;;9.90;;
24617;SDS011;12762;51.730;5.356;2023-12-04T00:13:43;21.03;;;9.90;;
24617;SDS011;12762;51.730;5.356;2023-12-04T00:16:10;19.50;;;9.40;;
24617;SDS011;12762;51.730;5.356;2023-12-04T00:18:37;22.00;;;9.87;;
24617;SDS011;12762;51.730;5.356;2023-12-04T00:21:04;23.10;;;10.07;;
24617;SDS011;12762;51.730;5.356;2023-12-04T00:23:31;24.73;;;10.40;;
24617;SDS011;12762;51.730;5.356;2023-12-04T00:25:59;29.27;;;11.53;;
24617;SDS011;12762;51.730;5.356;2023-12-04T00:28:26;24.03;;;10.07;;
24617;SDS011;12762;51.730;5.356;2023-12-04T00:30:55;24.03;;;9.93;;
24617;SDS011;12762;51.730;5.356;2023-12-04T00:33:24;20.77;;;9.20;;
24617;SDS011;12762;51.730;5.356;2023-12-04T00:35:51;25.10;;;10.77;;
24617;SDS011;12762;51.730;5.356;2023-12-04T00:38:18;22.87;;;10.07;;
24617;SDS011;12762;51.730;5.356;2023-12-04T00:40:45;28.50;;;11.37;;
24617;SDS011;12762;51.730;5.356;2023-12-04T00:43:11;26.77;;;11.07;;
24617;SDS011;12762;51.730;5.356;2023-12-04T00:45:38;23.83;;;10.63;;
24617;SDS011;12762;51.730;5.356;2023-12-04T00:48:06;21.90;;;10.07;;
24617;SDS011;12762;51.730;5.356;2023-12-04T00:50:32;23.77;;;10.23;;
24617;SDS011;12762;51.730;5.356;2023-12-04T00:53:00;26.30;;;10.60;;
24617;SDS011;12762;51.730;5.356;2023-12-04T00:55:27;22.17;;;10.03;;
24617;SDS011;12762;51.730;5.356;2023-12-04T00:57:54;22.87;;;10.30;;
24617;SDS011;12762;51.730;5.356;2023-12-04T01:00:21;22.73;;;9.70;;
24617;SDS011;12762;51.730;5.356;2023-12-04T01:02:47;23.03;;;9.43;;
24617;SDS011;12762;51.730;5.356;2023-12-04T01:05:14;25.53;;;10.17;;
24617;SDS011;12762;51.730;5.356;2023-12-04T01:07:41;23.57;;;10.17;;
24617;SDS011;12762;51.730;5.356;2023-12-04T01:10:08;24.23;;;10.27;;
24617;SDS011;12762;51.730;5.356;2023-12-04T01:12:35;22.80;;;9.90;;
24617;SDS011;12762;51.730;5.356;2023-12-04T01:15:02;19.13;;;8.67;;
24617;SDS011;12762;51.730;5.356;2023-12-04T01:17:29;18.33;;;9.07;;
24617;SDS011;12762;51.730;5.356;2023-12-04T01:19:59;19.47;;;8.50;;
24617;SDS011;12762;51.730;5.356;2023-12-04T01:22:26;23.73;;;9.00;;
24617;SDS011;12762;51.730;5.356;2023-12-04T01:24:56;23.33;;;9.70;;
24617;SDS011;12762;51.730;5.356;2023-12-04T01:27:22;25.10;;;11.30;;
24617;SDS011;12762;51.730;5.356;2023-12-04T01:29:49;22.37;;;9.70;;
24617;SDS011;12762;51.730;5.356;2023-12-04T01:32:16;23.97;;;10.23;;
24617;SDS011;12762;51.730;5.356;2023-12-04T01:34:43;21.33;;;9.40;;
24617;SDS011;12762;51.730;5.356;2023-12-04T01:37:09;17.63;;;8.77;;
24617;SDS011;12762;51.730;5.356;2023-12-04T01:39:36;22.43;;;9.93;;
24617;SDS011;12762;51.730;5.356;2023-12-04T01:42:03;21.80;;;10.23;;
24617;SDS011;12762;51.730;5.356;2023-12-04T01:44:30;20.53;;;9.27;;
24617;SDS011;12762;51.730;5.356;2023-12-04T01:46:57;20.73;;;9.80;;
24617;SDS011;12762;51.730;5.356;2023-12-04T01:49:24;22.63;;;10.17;;
24617;SDS011;12762;51.730;5.356;2023-12-04T01:51:50;20.00;;;8.83;;
24617;SDS011;12762;51.730;5.356;2023-12-04T01:54:17;25.97;;;9.80;;
24617;SDS011;12762;51.730;5.356;2023-12-04T01:56:45;19.67;;;9.23;;
24617;SDS011;12762;51.730;5.356;2023-12-04T01:59:13;21.27;;;9.60;;
24617;SDS011;12762;51.730;5.356;2023-12-04T02:01:40;21.10;;;9.70;;
24617;SDS011;12762;51.730;5.356;2023-12-04T02:04:09;21.23;;;9.10;;
24617;SDS011;12762;51.730;5.356;2023-12-04T02:06:36;16.27;;;7.77;;
24617;SDS011;12762;51.730;5.356;2023-12-04T02:09:03;19.70;;;9.30;;
24617;SDS011;12762;51.730;5.356;2023-12-04T02:11:32;23.93;;;10.00;;
24617;SDS011;12762;51.730;5.356;2023-12-04T02:14:02;18.80;;;8.30;;
24617;SDS011;12762;51.730;5.356;2023-12-04T02:16:29;18.67;;;7.70;;
24617;SDS011;12762;51.730;5.356;2023-12-04T02:18:59;19.60;;;8.93;;
24617;SDS011;12762;51.730;5.356;2023-12-04T02:21:26;17.10;;;7.40;;
24617;SDS011;12762;51.730;5.356;2023-12-04T02:23:53;18.27;;;8.73;;
24617;SDS011;12762;51.730;5.356;2023-12-04T02:26:22;19.17;;;8.67;;
24617;SDS011;12762;51.730;5.356;2023-12-04T02:28:58;21.93;;;8.60;;
24617;SDS011;12762;51.730;5.356;2023-12-04T02:31:27;19.87;;;8.53;;
24617;SDS011;12762;51.730;5.356;2023-12-04T02:33:55;17.47;;;7.27;;
24617;SDS011;12762;51.730;5.356;2023-12-04T02:36:25;18.37;;;8.00;;
24617;SDS011;12762;51.730;5.356;2023-12-04T02:38:53;19.23;;;8.17;;
24617;SDS011;12762;51.730;5.356;2023-12-04T02:41:21;17.20;;;7.97;;
24617;SDS011;12762;51.730;5.356;2023-12-04T02:43:47;19.10;;;8.20;;
24617;SDS011;12762;51.730;5.356;2023-12-04T02:46:14;18.60;;;8.07;;
24617;SDS011;12762;51.730;5.356;2023-12-04T02:48:41;18.77;;;7.67;;
24617;SDS011;12762;51.730;5.356;2023-12-04T02:51:08;16.23;;;7.97;;
24617;SDS011;12762;51.730;5.356;2023-12-04T02:53:36;15.07;;;6.97;;
24617;SDS011;12762;51.730;5.356;2023-12-04T02:56:02;20.50;;;7.93;;
24617;SDS011;12762;51.730;5.356;2023-12-04T02:58:29;17.97;;;7.33;;
24617;SDS011;12762;51.730;5.356;2023-12-04T03:00:56;15.60;;;6.80;;
24617;SDS011;12762;51.730;5.356;2023-12-04T03:03:23;17.27;;;7.90;;
24617;SDS011;12762;51.730;5.356;2023-12-04T03:05:50;19.23;;;8.13;;
24617;SDS011;12762;51.730;5.356;2023-12-04T03:08:17;16.80;;;7.87;;
24617;SDS011;12762;51.730;5.356;2023-12-04T03:10:44;16.80;;;7.77;;
24617;SDS011;12762;51.730;5.356;2023-12-04T03:13:11;20.77;;;8.67;;
24617;SDS011;12762;51.730;5.356;2023-12-04T03:15:37;18.23;;;8.87;;
24617;SDS011;12762;51.730;5.356;2023-12-04T03:18:04;18.27;;;7.50;;
24617;SDS011;12762;51.730;5.356;2023-12-04T03:20:33;17.70;;;7.67;;
24617;SDS011;12762;51.730;5.356;2023-12-04T03:23:00;16.23;;;6.83;;
24617;SDS011;12762;51.730;5.356;2023-12-04T03:25:27;17.93;;;7.60;;
24617;SDS011;12762;51.730;5.356;2023-12-04T03:27:53;14.77;;;7.03;;
24617;SDS011;12762;51.730;5.356;2023-12-04T03:30:20;15.77;;;6.87;;
24617;SDS011;12762;51.730;5.356;2023-12-04T03:32:47;19.87;;;7.97;;
24617;SDS011;12762;51.730;5.356;2023-12-04T03:35:14;20.27;;;8.20;;
24617;SDS011;12762;51.730;5.356;2023-12-04T03:37:42;18.57;;;7.40;;
24617;SDS011;12762;51.730;5.356;2023-12-04T03:40:12;16.13;;;7.43;;
24617;SDS011;12762;51.730;5.356;2023-12-04T03:42:39;17.43;;;7.47;;
24617;SDS011;12762;51.730;5.356;2023-12-04T03:45:07;18.53;;;7.67;;
24617;SDS011;12762;51.730;5.356;2023-12-04T03:47:34;16.70;;;6.97;;
24617;SDS011;12762;51.730;5.356;2023-12-04T03:50:01;18.67;;;7.57;;
24617;SDS011;12762;51.730;5.356;2023-12-04T03:52:27;16.77;;;7.43;;
24617;SDS011;12762;51.730;5.356;2023-12-04T03:54:54;14.60;;;7.43;;
24617;SDS011;12762;51.730;5.356;2023-12-04T03:57:21;17.27;;;6.83;;
24617;SDS011;12762;51.730;5.356;2023-12-04T03:59:47;13.40;;;6.30;;
24617;SDS011;12762;51.730;5.356;2023-12-04T04:02:14;15.87;;;6.43;;
24617;SDS011;12762;51.730;5.356;2023-12-04T04:04:41;14.70;;;6.80;;
24617;SDS011;12762;51.730;5.356;2023-12-04T04:07:08;14.63;;;6.97;;
24617;SDS011;12762;51.730;5.356;2023-12-04T04:09:35;13.53;;;6.83;;
24617;SDS011;12762;51.730;5.356;2023-12-04T04:12:02;16.47;;;6.70;;
24617;SDS011;12762;51.730;5.356;2023-12-04T04:14:29;15.30;;;6.77;;
24617;SDS011;12762;51.730;5.356;2023-12-04T04:16:56;15.37;;;7.13;;
24617;SDS011;12762;51.730;5.356;2023-12-04T04:19:22;12.50;;;6.60;;
24617;SDS011;12762;51.730;5.356;2023-12-04T04:21:49;14.90;;;6.67;;
24617;SDS011;12762;51.730;5.356;2023-12-04T04:24:16;16.80;;;7.77;;
24617;SDS011;12762;51.730;5.356;2023-12-04T04:26:43;16.53;;;6.97;;
24617;SDS011;12762;51.730;5.356;2023-12-04T04:29:09;14.87;;;6.87;;
24617;SDS011;12762;51.730;5.356;2023-12-04T04:31:36;17.53;;;6.53;;
24617;SDS011;12762;51.730;5.356;2023-12-04T04:34:03;14.40;;;6.27;;
24617;SDS011;12762;51.730;5.356;2023-12-04T04:36:30;14.47;;;6.00;;
24617;SDS011;12762;51.730;5.356;2023-12-04T04:38:56;14.30;;;6.80;;
24617;SDS011;12762;51.730;5.356;2023-12-04T04:41:23;17.17;;;7.17;;
24617;SDS011;12762;51.730;5.356;2023-12-04T04:43:50;14.50;;;7.07;;
24617;SDS011;12762;51.730;5.356;2023-12-04T04:46:17;15.43;;;6.80;;
24617;SDS011;12762;51.730;5.356;2023-12-04T04:48:43;17.07;;;6.87;;
24617;SDS011;12762;51.730;5.356;2023-12-04T04:51:10;19.47;;;7.17;;
24617;SDS011;12762;51.730;5.356;2023-12-04T04:53:37;13.97;;;6.67;;
24617;SDS011;12762;51.730;5.356;2023-12-04T04:56:04;15.67;;;7.20;;
24617;SDS011;12762;51.730;5.356;2023-12-04T04:58:31;15.70;;;6.60;;
24617;SDS011;12762;51.730;5.356;2023-12-04T05:00:58;14.50;;;6.53;;
24617;SDS011;12762;51.730;5.356;2023-12-04T05:03:25;15.53;;;6.60;;
24617;SDS011;12762;51.730;5.356;2023-12-04T05:05:52;17.10;;;7.53;;
24617;SDS011;12762;51.730;5.356;2023-12-04T05:08:19;16.37;;;7.73;;
24617;SDS011;12762;51.730;5.356;2023-12-04T05:10:45;15.50;;;6.83;;
24617;SDS011;12762;51.730;5.356;2023-12-04T05:13:15;15.13;;;8.03;;
24617;SDS011;12762;51.730;5.356;2023-12-04T05:15:42;13.13;;;7.07;;
24617;SDS011;12762;51.730;5.356;2023-12-04T05:18:08;16.77;;;7.47;;
24617;SDS011;12762;51.730;5.356;2023-12-04T05:20:35;17.47;;;7.00;;
24617;SDS011;12762;51.730;5.356;2023-12-04T05:23:02;15.50;;;7.00;;
24617;SDS011;12762;51.730;5.356;2023-12-04T05:25:29;11.67;;;6.10;;
24617;SDS011;12762;51.730;5.356;2023-12-04T05:28:03;19.63;;;7.33;;
24617;SDS011;12762;51.730;5.356;2023-12-04T05:30:30;16.90;;;8.13;;
24617;SDS011;12762;51.730;5.356;2023-12-04T05:32:57;15.77;;;7.43;;
24617;SDS011;12762;51.730;5.356;2023-12-04T05:35:24;21.17;;;7.97;;
24617;SDS011;12762;51.730;5.356;2023-12-04T05:37:51;18.53;;;7.83;;
24617;SDS011;12762;51.730;5.356;2023-12-04T05:40:17;16.23;;;7.87;;
24617;SDS011;12762;51.730;5.356;2023-12-04T05:42:44;18.87;;;8.10;;
24617;SDS011;12762;51.730;5.356;2023-12-04T05:45:11;16.23;;;6.47;;
24617;SDS011;12762;51.730;5.356;2023-12-04T05:47:38;18.27;;;7.17;;
24617;SDS011;12762;51.730;5.356;2023-12-04T05:50:05;13.93;;;6.50;;
24617;SDS011;12762;51.730;5.356;2023-12-04T05:52:32;15.90;;;7.53;;
24617;SDS011;12762;51.730;5.356;2023-12-04T05:54:59;14.90;;;6.40;;
24617;SDS011;12762;51.730;5.356;2023-12-04T05:57:25;15.17;;;6.53;;
24617;SDS011;12762;51.730;5.356;2023-12-04T05:59:52;16.23;;;7.33;;
24617;SDS011;12762;51.730;5.356;2023-12-04T06:02:19;13.60;;;6.43;;
24617;SDS011;12762;51.730;5.356;2023-12-04T06:04:46;15.03;;;7.00;;
24617;SDS011;12762;51.730;5.356;2023-12-04T06:07:12;18.77;;;7.77;;
24617;SDS011;12762;51.730;5.356;2023-12-04T06:09:46;17.20;;;7.37;;
24617;SDS011;12762;51.730;5.356;2023-12-04T06:12:13;14.90;;;7.00;;
24617;SDS011;12762;51.730;5.356;2023-12-04T06:14:40;11.90;;;5.90;;
24617;SDS011;12762;51.730;5.356;2023-12-04T06:17:07;14.57;;;6.93;;
24617;SDS011;12762;51.730;5.356;2023-12-04T06:19:34;11.50;;;5.63;;
24617;SDS011;12762;51.730;5.356;2023-12-04T06:22:00;17.37;;;7.20;;
24617;SDS011;12762;51.730;5.356;2023-12-04T06:24:27;14.47;;;6.27;;
24617;SDS011;12762;51.730;5.356;2023-12-04T06:26:54;10.83;;;5.97;;
24617;SDS011;12762;51.730;5.356;2023-12-04T06:29:22;12.93;;;5.87;;
24617;SDS011;12762;51.730;5.356;2023-12-04T06:31:49;11.97;;;5.83;;
24617;SDS011;12762;51.730;5.356;2023-12-04T06:34:16;11.90;;;6.10;;
24617;SDS011;12762;51.730;5.356;2023-12-04T06:36:43;13.90;;;6.23;;
24617;SDS011;12762;51.730;5.356;2023-12-04T06:39:11;15.20;;;6.27;;
24617;SDS011;12762;51.730;5.356;2023-12-04T06:41:39;12.90;;;6.30;;
24617;SDS011;12762;51.730;5.356;2023-12-04T06:44:06;13.50;;;6.17;;
24617;SDS011;12762;51.730;5.356;2023-12-04T06:46:34;13.43;;;5.67;;
24617;SDS011;12762;51.730;5.356;2023-12-04T06:49:06;13.30;;;5.27;;
24617;SDS011;12762;51.730;5.356;2023-12-04T06:51:35;11.07;;;5.50;;
24617;SDS011;12762;51.730;5.356;2023-12-04T06:54:08;11.40;;;5.63;;
24617;SDS011;12762;51.730;5.356;2023-12-04T06:56:35;14.70;;;6.17;;
24617;SDS011;12762;51.730;5.356;2023-12-04T06:59:01;11.93;;;6.03;;
24617;SDS011;12762;51.730;5.356;2023-12-04T07:01:28;12.37;;;5.33;;
24617;SDS011;12762;51.730;5.356;2023-12-04T07:03:55;13.27;;;5.87;;
24617;SDS011;12762;51.730;5.356;2023-12-04T07:06:22;11.10;;;5.47;;
24617;SDS011;12762;51.730;5.356;2023-12-04T07:08:48;12.57;;;5.40;;
24617;SDS011;12762;51.730;5.356;2023-12-04T07:11:15;13.50;;;5.67;;
24617;SDS011;12762;51.730;5.356;2023-12-04T07:13:42;10.70;;;4.60;;
24617;SDS011;12762;51.730;5.356;2023-12-04T07:16:09;10.53;;;4.50;;
24617;SDS011;12762;51.730;5.356;2023-12-04T07:18:36;13.90;;;5.10;;
24617;SDS011;12762;51.730;5.356;2023-12-04T07:21:03;11.57;;;4.60;;
24617;SDS011;12762;51.730;5.356;2023-12-04T07:23:30;10.40;;;5.30;;
24617;SDS011;12762;51.730;5.356;2023-12-04T07:25:57;11.90;;;5.40;;
24617;SDS011;12762;51.730;5.356;2023-12-04T07:28:23;12.80;;;5.07;;
24617;SDS011;12762;51.730;5.356;2023-12-04T07:30:50;9.17;;;4.60;;
24617;SDS011;12762;51.730;5.356;2023-12-04T07:33:17;10.90;;;5.27;;
24617;SDS011;12762;51.730;5.356;2023-12-04T07:35:44;10.90;;;5.10;;
24617;SDS011;12762;51.730;5.356;2023-12-04T07:38:11;12.27;;;5.40;;
24617;SDS011;12762;51.730;5.356;2023-12-04T07:40:38;12.00;;;5.27;;
24617;SDS011;12762;51.730;5.356;2023-12-04T07:43:05;9.53;;;4.67;;
24617;SDS011;12762;51.730;5.356;2023-12-04T07:45:35;8.33;;;4.17;;
24617;SDS011;12762;51.730;5.356;2023-12-04T07:48:03;11.27;;;5.30;;
24617;SDS011;12762;51.730;5.356;2023-12-04T07:50:31;9.73;;;4.70;;
24617;SDS011;12762;51.730;5.356;2023-12-04T07:53:01;8.23;;;4.53;;
24617;SDS011;12762;51.730;5.356;2023-12-04T07:55:28;10.23;;;4.90;;
24617;SDS011;12762;51.730;5.356;2023-12-04T07:57:54;7.47;;;3.87;;
24617;SDS011;12762;51.730;5.356;2023-12-04T08:00:25;9.30;;;4.97;;
24617;SDS011;12762;51.730;5.356;2023-12-04T08:02:52;11.63;;;5.27;;
24617;SDS011;12762;51.730;5.356;2023-12-04T08:05:19;10.93;;;5.27;;
24617;SDS011;12762;51.730;5.356;2023-12-04T08:07:46;9.60;;;4.77;;
24617;SDS011;12762;51.730;5.356;2023-12-04T08:10:13;8.87;;;4.10;;
24617;SDS011;12762;51.730;5.356;2023-12-04T08:12:44;9.07;;;4.57;;
24617;SDS011;12762;51.730;5.356;2023-12-04T08:15:12;11.60;;;4.87;;
24617;SDS011;12762;51.730;5.356;2023-12-04T08:17:39;9.33;;;4.50;;
24617;SDS011;12762;51.730;5.356;2023-12-04T08:20:05;11.43;;;4.27;;
24617;SDS011;12762;51.730;5.356;2023-12-04T08:22:33;10.33;;;4.70;;
24617;SDS011;12762;51.730;5.356;2023-12-04T08:25:03;8.60;;;4.33;;
24617;SDS011;12762;51.730;5.356;2023-12-04T08:27:33;10.57;;;5.07;;
24617;SDS011;12762;51.730;5.356;2023-12-04T08:30:06;10.60;;;5.20;;
24617;SDS011;12762;51.730;5.356;2023-12-04T08:32:35;9.83;;;4.13;;
24617;SDS011;12762;51.730;5.356;2023-12-04T08:35:08;8.37;;;4.33;;
24617;SDS011;12762;51.730;5.356;2023-12-04T08:37:35;7.07;;;3.80;;
24617;SDS011;12762;51.730;5.356;2023-12-04T08:40:02;9.53;;;4.67;;
24617;SDS011;12762;51.730;5.356;2023-12-04T08:42:29;8.03;;;4.27;;
24617;SDS011;12762;51.730;5.356;2023-12-04T08:44:56;11.10;;;4.67;;
24617;SDS011;12762;51.730;5.356;2023-12-04T08:47:23;9.83;;;4.67;;
24617;SDS011;12762;51.730;5.356;2023-12-04T08:49:50;9.03;;;4.33;;
24617;SDS011;12762;51.730;5.356;2023-12-04T08:52:17;9.50;;;4.33;;
24617;SDS011;12762;51.730;5.356;2023-12-04T08:54:44;9.30;;;4.40;;
24617;SDS011;12762;51.730;5.356;2023-12-04T08:57:10;7.83;;;4.43;;
24617;SDS011;12762;51.730;5.356;2023-12-04T08:59:37;10.43;;;4.13;;
24617;SDS011;12762;51.730;5.356;2023-12-04T09:02:06;7.47;;;4.10;;
24617;SDS011;12762;51.730;5.356;2023-12-04T09:04:36;10.43;;;4.60;;
24617;SDS011;12762;51.730;5.356;2023-12-04T09:07:03;9.83;;;4.57;;
24617;SDS011;12762;51.730;5.356;2023-12-04T09:09:33;9.73;;;4.93;;
24617;SDS011;12762;51.730;5.356;2023-12-04T09:12:01;11.07;;;4.57;;
24617;SDS011;12762;51.730;5.356;2023-12-04T09:14:27;7.97;;;3.97;;
24617;SDS011;12762;51.730;5.356;2023-12-04T09:16:54;8.70;;;4.33;;
24617;SDS011;12762;51.730;5.356;2023-12-04T09:19:21;7.33;;;3.87;;
24617;SDS011;12762;51.730;5.356;2023-12-04T09:21:49;6.83;;;3.73;;
24617;SDS011;12762;51.730;5.356;2023-12-04T09:24:39;10.33;;;4.60;;
24617;SDS011;12762;51.730;5.356;2023-12-04T09:27:05;7.60;;;4.27;;
24617;SDS011;12762;51.730;5.356;2023-12-04T09:29:34;9.70;;;4.37;;
24617;SDS011;12762;51.730;5.356;2023-12-04T09:32:01;9.73;;;4.20;;
24617;SDS011;12762;51.730;5.356;2023-12-04T09:34:28;9.93;;;4.77;;
24617;SDS011;12762;51.730;5.356;2023-12-04T09:36:55;12.70;;;4.63;;
24617;SDS011;12762;51.730;5.356;2023-12-04T09:39:34;9.80;;;4.63;;
24617;SDS011;12762;51.730;5.356;2023-12-04T09:42:01;9.87;;;4.23;;
24617;SDS011;12762;51.730;5.356;2023-12-04T09:44:29;9.80;;;4.63;;
24617;SDS011;12762;51.730;5.356;2023-12-04T09:46:57;9.50;;;4.53;;
24617;SDS011;12762;51.730;5.356;2023-12-04T09:49:26;9.90;;;4.30;;
24617;SDS011;12762;51.730;5.356;2023-12-04T09:51:57;10.53;;;4.83;;
24617;SDS011;12762;51.730;5.356;2023-12-04T09:54:24;14.17;;;4.43;;
24617;SDS011;12762;51.730;5.356;2023-12-04T09:56:52;11.07;;;4.67;;
24617;SDS011;12762;51.730;5.356;2023-12-04T09:59:20;8.43;;;4.30;;
24617;SDS011;12762;51.730;5.356;2023-12-04T10:01:51;9.13;;;4.47;;
24617;SDS011;12762;51.730;5.356;2023-12-04T10:04:18;8.57;;;4.40;;
24617;SDS011;12762;51.730;5.356;2023-12-04T10:06:45;6.90;;;4.10;;
24617;SDS011;12762;51.730;5.356;2023-12-04T10:09:16;8.77;;;4.53;;
24617;SDS011;12762;51.730;5.356;2023-12-04T10:11:44;10.13;;;4.63;;
24617;SDS011;12762;51.730;5.356;2023-12-04T10:14:15;9.73;;;4.67;;
24617;SDS011;12762;51.730;5.356;2023-12-04T10:16:43;10.63;;;5.27;;
24617;SDS011;12762;51.730;5.356;2023-12-04T10:19:17;10.10;;;5.07;;
24617;SDS011;12762;51.730;5.356;2023-12-04T10:21:58;7.70;;;4.37;;
24617;SDS011;12762;51.730;5.356;2023-12-04T10:24:27;9.97;;;5.10;;
24617;SDS011;12762;51.730;5.356;2023-12-04T10:26:54;11.43;;;5.20;;
24617;SDS011;12762;51.730;5.356;2023-12-04T10:29:21;13.97;;;5.00;;
24617;SDS011;12762;51.730;5.356;2023-12-04T10:31:48;10.47;;;5.20;;
24617;SDS011;12762;51.730;5.356;2023-12-04T10:34:18;10.63;;;5.60;;
24617;SDS011;12762;51.730;5.356;2023-12-04T10:36:46;10.70;;;5.30;;
24617;SDS011;12762;51.730;5.356;2023-12-04T10:39:13;11.27;;;5.50;;
24617;SDS011;12762;51.730;5.356;2023-12-04T10:41:43;9.63;;;5.07;;
24617;SDS011;12762;51.730;5.356;2023-12-04T10:44:15;8.10;;;4.97;;
24617;SDS011;12762;51.730;5.356;2023-12-04T10:46:43;10.27;;;5.10;;
24617;SDS011;12762;51.730;5.356;2023-12-04T10:49:13;9.30;;;5.40;;
24617;SDS011;12762;51.730;5.356;2023-12-04T10:51:41;10.70;;;5.20;;
24617;SDS011;12762;51.730;5.356;2023-12-04T10:54:08;11.13;;;6.23;;
24617;SDS011;12762;51.730;5.356;2023-12-04T10:56:38;11.33;;;5.30;;
24617;SDS011;12762;51.730;5.356;2023-12-04T10:59:10;10.73;;;5.67;;
24617;SDS011;12762;51.730;5.356;2023-12-04T11:01:44;9.93;;;5.33;;
24617;SDS011;12762;51.730;5.356;2023-12-04T11:04:14;11.90;;;6.50;;
24617;SDS011;12762;51.730;5.356;2023-12-04T11:06:44;13.10;;;6.20;;
24617;SDS011;12762;51.730;5.356;2023-12-04T11:09:16;15.27;;;6.23;;
24617;SDS011;12762;51.730;5.356;2023-12-04T11:11:46;9.37;;;4.73;;
24617;SDS011;12762;51.730;5.356;2023-12-04T11:14:21;12.07;;;5.93;;
24617;SDS011;12762;51.730;5.356;2023-12-04T11:16:51;14.00;;;6.20;;
24617;SDS011;12762;51.730;5.356;2023-12-04T11:19:23;12.83;;;6.00;;
24617;SDS011;12762;51.730;5.356;2023-12-04T11:22:03;13.20;;;6.17;;
24617;SDS011;12762;51.730;5.356;2023-12-04T11:24:33;11.87;;;6.00;;
24617;SDS011;12762;51.730;5.356;2023-12-04T11:27:01;11.77;;;6.40;;
24617;SDS011;12762;51.730;5.356;2023-12-04T11:29:29;11.80;;;5.83;;
24617;SDS011;12762;51.730;5.356;2023-12-04T11:31:58;14.23;;;6.90;;
24617;SDS011;12762;51.730;5.356;2023-12-04T11:34:25;12.70;;;6.77;;
24617;SDS011;12762;51.730;5.356;2023-12-04T11:36:54;13.60;;;7.30;;
24617;SDS011;12762;51.730;5.356;2023-12-04T11:39:33;9.83;;;5.70;;
24617;SDS011;12762;51.730;5.356;2023-12-04T11:42:01;12.10;;;6.17;;
24617;SDS011;12762;51.730;5.356;2023-12-04T11:44:32;11.20;;;6.10;;
24617;SDS011;12762;51.730;5.356;2023-12-04T11:47:04;19.13;;;6.90;;
24617;SDS011;12762;51.730;5.356;2023-12-04T11:49:32;13.97;;;5.80;;
24617;SDS011;12762;51.730;5.356;2023-12-04T11:52:00;11.13;;;6.13;;
24617;SDS011;12762;51.730;5.356;2023-12-04T11:57:25;10.47;;;5.57;;
24617;SDS011;12762;51.730;5.356;2023-12-04T12:00:07;12.33;;;6.13;;
24617;SDS011;12762;51.730;5.356;2023-12-04T12:05:40;14.20;;;6.90;;
24617;SDS011;12762;51.730;5.356;2023-12-04T12:08:08;11.10;;;5.83;;
24617;SDS011;12762;51.730;5.356;2023-12-04T12:10:35;12.07;;;6.37;;
24617;SDS011;12762;51.730;5.356;2023-12-04T12:13:02;13.40;;;6.50;;
24617;SDS011;12762;51.730;5.356;2023-12-04T12:15:32;12.13;;;5.97;;
24617;SDS011;12762;51.730;5.356;2023-12-04T12:17:59;10.67;;;6.07;;
24617;SDS011;12762;51.730;5.356;2023-12-04T12:20:26;9.30;;;5.30;;
24617;SDS011;12762;51.730;5.356;2023-12-04T12:22:53;11.90;;;5.90;;
24617;SDS011;12762;51.730;5.356;2023-12-04T12:25:22;12.87;;;6.53;;
24617;SDS011;12762;51.730;5.356;2023-12-04T12:27:51;12.03;;;5.70;;
24617;SDS011;12762;51.730;5.356;2023-12-04T12:30:18;10.73;;;5.97;;
24617;SDS011;12762;51.730;5.356;2023-12-04T12:32:45;11.13;;;5.83;;
24617;SDS011;12762;51.730;5.356;2023-12-04T12:35:12;14.10;;;6.90;;
24617;SDS011;12762;51.730;5.356;2023-12-04T12:37:39;11.73;;;5.60;;
24617;SDS011;12762;51.730;5.356;2023-12-04T12:40:09;12.57;;;5.70;;
24617;SDS011;12762;51.730;5.356;2023-12-04T12:42:37;12.57;;;5.67;;
24617;SDS011;12762;51.730;5.356;2023-12-04T12:45:08;15.43;;;6.77;;
24617;SDS011;12762;51.730;5.356;2023-12-04T12:47:40;10.80;;;6.10;;
24617;SDS011;12762;51.730;5.356;2023-12-04T12:50:08;15.27;;;6.80;;
24617;SDS011;12762;51.730;5.356;2023-12-04T12:52:37;13.70;;;6.40;;
24617;SDS011;12762;51.730;5.356;2023-12-04T12:55:04;10.73;;;5.97;;
24617;SDS011;12762;51.730;5.356;2023-12-04T12:57:32;13.77;;;6.13;;
24617;SDS011;12762;51.730;5.356;2023-12-04T13:00:01;15.47;;;7.20;;
24617;SDS011;12762;51.730;5.356;2023-12-04T13:02:28;12.83;;;6.27;;
24617;SDS011;12762;51.730;5.356;2023-12-04T13:04:55;14.60;;;6.47;;
24617;SDS011;12762;51.730;5.356;2023-12-04T13:07:22;11.33;;;6.17;;
24617;SDS011;12762;51.730;5.356;2023-12-04T13:09:49;15.50;;;6.50;;
24617;SDS011;12762;51.730;5.356;2023-12-04T13:12:16;14.43;;;6.30;;
24617;SDS011;12762;51.730;5.356;2023-12-04T13:14:43;14.13;;;6.60;;
24617;SDS011;12762;51.730;5.356;2023-12-04T13:17:10;15.87;;;7.67;;
24617;SDS011;12762;51.730;5.356;2023-12-04T13:19:36;13.90;;;6.87;;
24617;SDS011;12762;51.730;5.356;2023-12-04T13:22:03;11.37;;;6.40;;
24617;SDS011;12762;51.730;5.356;2023-12-04T13:24:31;13.33;;;6.40;;
24617;SDS011;12762;51.730;5.356;2023-12-04T13:26:57;12.57;;;6.30;;
24617;SDS011;12762;51.730;5.356;2023-12-04T13:29:24;12.33;;;5.73;;
24617;SDS011;12762;51.730;5.356;2023-12-04T13:31:51;13.30;;;6.40;;
24617;SDS011;12762;51.730;5.356;2023-12-04T13:34:19;10.87;;;5.60;;
24617;SDS011;12762;51.730;5.356;2023-12-04T13:36:46;12.80;;;6.50;;
24617;SDS011;12762;51.730;5.356;2023-12-04T13:39:13;13.10;;;6.30;;
24617;SDS011;12762;51.730;5.356;2023-12-04T13:41:44;10.27;;;5.70;;
24617;SDS011;12762;51.730;5.356;2023-12-04T13:44:31;11.53;;;6.03;;
24617;SDS011;12762;51.730;5.356;2023-12-04T13:46:59;11.40;;;5.43;;
24617;SDS011;12762;51.730;5.356;2023-12-04T13:49:26;13.07;;;6.63;;
24617;SDS011;12762;51.730;5.356;2023-12-04T13:51:53;13.83;;;6.70;;
24617;SDS011;12762;51.730;5.356;2023-12-04T13:54:21;12.60;;;5.97;;
24617;SDS011;12762;51.730;5.356;2023-12-04T13:56:58;14.07;;;6.10;;
24617;SDS011;12762;51.730;5.356;2023-12-04T13:59:30;10.00;;;5.33;;
24617;SDS011;12762;51.730;5.356;2023-12-04T14:01:59;13.40;;;6.23;;
24617;SDS011;12762;51.730;5.356;2023-12-04T14:04:26;12.77;;;5.70;;
24617;SDS011;12762;51.730;5.356;2023-12-04T14:06:54;13.13;;;6.53;;
24617;SDS011;12762;51.730;5.356;2023-12-04T14:09:25;17.37;;;6.43;;
24617;SDS011;12762;51.730;5.356;2023-12-04T14:11:52;11.53;;;6.27;;
24617;SDS011;12762;51.730;5.356;2023-12-04T14:14:19;11.73;;;5.80;;
24617;SDS011;12762;51.730;5.356;2023-12-04T14:16:45;11.67;;;5.20;;
24617;SDS011;12762;51.730;5.356;2023-12-04T14:19:13;11.40;;;5.77;;
24617;SDS011;12762;51.730;5.356;2023-12-04T14:21:44;12.30;;;6.57;;
24617;SDS011;12762;51.730;5.356;2023-12-04T14:24:10;12.53;;;5.70;;
24617;SDS011;12762;51.730;5.356;2023-12-04T14:26:37;13.93;;;6.03;;
24617;SDS011;12762;51.730;5.356;2023-12-04T14:29:04;17.30;;;7.00;;
24617;SDS011;12762;51.730;5.356;2023-12-04T14:31:34;11.20;;;5.17;;
24617;SDS011;12762;51.730;5.356;2023-12-04T14:34:01;11.37;;;5.97;;
24617;SDS011;12762;51.730;5.356;2023-12-04T14:36:29;10.43;;;5.37;;
24617;SDS011;12762;51.730;5.356;2023-12-04T14:38:59;11.97;;;5.33;;
24617;SDS011;12762;51.730;5.356;2023-12-04T14:41:30;11.47;;;5.60;;
24617;SDS011;12762;51.730;5.356;2023-12-04T14:43:57;11.20;;;5.73;;
24617;SDS011;12762;51.730;5.356;2023-12-04T14:46:24;10.43;;;6.20;;